Time;durP1;ratioP1;P1;durP2;ratioP2;P2;SDS_P1;SDS_P2;PMS_P1;PMS_P2;Temp;Humidity;BMP_temperature;BMP_pressure;BME280_temperature;BME280_humidity;BME280_pressure;Samples;Min_cycle;Max_cycle;Signal;HPM_P1;HPM_P2
2023/01/09 00:01:22;;;;;;;1.15;0.60;;;21.10;39.70;;;;;;5030281;28;20049;-56
2023/01/09 00:03:48;;;;;;;2.15;0.55;;;21.10;39.70;;;;;;5031000;28;20091;-55
2023/01/09 00:06:14;;;;;;;1.55;0.70;;;21.10;39.70;;;;;;5014594;28;20029;-56
2023/01/09 00:08:40;;;;;;;0.60;0.40;;;21.10;39.70;;;;;;5025186;28;20022;-56
2023/01/09 00:11:06;;;;;;;1.15;0.40;;;21.00;39.70;;;;;;5031347;28;20670;-56
2023/01/09 00:13:31;;;;;;;0.52;0.40;;;21.00;39.70;;;;;;5028423;28;20456;-55
2023/01/09 00:15:58;;;;;;;2.25;0.40;;;21.00;39.70;;;;;;5030416;28;20037;-57
2023/01/09 00:18:24;;;;;;;0.73;0.50;;;21.00;39.70;;;;;;5029383;28;20357;-55
2023/01/09 00:20:50;;;;;;;0.88;0.47;;;21.00;39.70;;;;;;5028767;28;20520;-56
2023/01/09 00:23:17;;;;;;;0.65;0.30;;;21.00;39.60;;;;;;5032181;28;20083;-57
2023/01/09 00:25:42;;;;;;;0.82;0.50;;;21.00;39.70;;;;;;5028628;28;20029;-54
2023/01/09 00:28:08;;;;;;;1.38;0.50;;;21.00;39.60;;;;;;5030368;28;20467;-55
2023/01/09 00:30:34;;;;;;;2.25;0.50;;;21.00;39.60;;;;;;5032285;28;20036;-55
2023/01/09 00:33:00;;;;;;;0.50;0.35;;;21.00;39.60;;;;;;5029994;28;20381;-54
2023/01/09 00:35:27;;;;;;;0.88;0.40;;;21.00;39.60;;;;;;5030103;28;20111;-55
2023/01/09 00:37:53;;;;;;;0.75;0.30;;;21.00;39.60;;;;;;5012833;28;20033;-55
2023/01/09 00:40:19;;;;;;;0.80;0.40;;;21.00;39.60;;;;;;5029061;28;20064;-53
2023/01/09 00:42:50;;;;;;;0.57;0.30;;;21.00;39.60;;;;;;5028178;28;20021;-53
2023/01/09 00:45:27;;;;;;;0.75;0.30;;;21.00;39.60;;;;;;5028084;28;20072;-57
2023/01/09 00:47:54;;;;;;;1.02;0.22;;;21.00;39.50;;;;;;5031062;28;20026;-52
2023/01/09 00:50:25;;;;;;;1.15;0.40;;;21.00;39.50;;;;;;5030040;28;20040;-57
2023/01/09 00:52:55;;;;;;;0.50;0.40;;;21.00;39.50;;;;;;5029746;28;20029;-52
2023/01/09 00:55:20;;;;;;;0.20;0.20;;;20.90;39.40;;;;;;5033182;28;20030;-54
2023/01/09 00:57:47;;;;;;;0.63;0.30;;;21.00;39.50;;;;;;5029307;28;20041;-56
2023/01/09 01:00:13;;;;;;;0.40;0.28;;;21.00;39.40;;;;;;5029154;28;20017;-55
2023/01/09 01:02:38;;;;;;;0.57;0.22;;;20.90;39.30;;;;;;5031866;28;20084;-55
2023/01/09 01:07:49;;;;;;;;;;;20.90;39.30;;;;;;5031218;28;20464;-53
2023/01/09 01:10:20;;;;;;;0.95;0.30;;;20.90;39.20;;;;;;5033559;28;19909;-52
2023/01/09 01:12:48;;;;;;;0.60;0.28;;;20.90;39.20;;;;;;5029284;28;20771;-55
2023/01/09 01:15:14;;;;;;;0.50;0.30;;;20.90;39.20;;;;;;5034364;28;20127;-57
2023/01/09 01:17:40;;;;;;;0.57;0.20;;;20.90;39.20;;;;;;5033569;28;20067;-55
2023/01/09 01:20:11;;;;;;;0.40;0.20;;;20.90;39.20;;;;;;5033817;28;20025;-53
2023/01/09 01:22:37;;;;;;;0.47;0.20;;;20.90;39.20;;;;;;5031871;28;20460;-52
2023/01/09 01:25:04;;;;;;;0.20;0.20;;;20.80;39.20;;;;;;5033964;28;20032;-51
2023/01/09 01:27:30;;;;;;;0.70;0.40;;;20.80;39.20;;;;;;5033353;28;20083;-52
2023/01/09 01:29:56;;;;;;;0.50;0.25;;;20.80;39.20;;;;;;5032804;28;20348;-51
2023/01/09 01:32:23;;;;;;;0.60;0.20;;;20.80;39.20;;;;;;5030932;28;20021;-51
2023/01/09 01:34:49;;;;;;;0.40;0.30;;;20.80;39.20;;;;;;5033241;28;20223;-54
2023/01/09 01:37:14;;;;;;;0.60;0.20;;;20.80;39.10;;;;;;5033344;28;20108;-51
2023/01/09 01:39:40;;;;;;;0.80;0.35;;;20.80;39.10;;;;;;5033238;28;20409;-50
2023/01/09 01:42:06;;;;;;;1.08;0.40;;;20.80;39.10;;;;;;5032222;28;20052;-53
2023/01/09 01:45:03;;;;;;;1.00;0.20;;;20.80;39.10;;;;;;5031668;28;20032;-54
2023/01/09 01:47:53;;;;;;;0.32;0.10;;;20.80;39.10;;;;;;5030089;28;20061;-54
2023/01/09 01:50:37;;;;;;;0.80;0.30;;;20.80;39.70;;;;;;5032676;28;20030;-55
2023/01/09 01:53:12;;;;;;;0.70;0.30;;;20.80;39.20;;;;;;5030930;28;20044;-55
2023/01/09 01:55:44;;;;;;;1.38;0.20;;;20.80;39.20;;;;;;5024182;28;20026;-50
2023/01/09 01:58:14;;;;;;;0.50;0.30;;;20.80;39.20;;;;;;5026937;28;20037;-53
2023/01/09 02:00:44;;;;;;;0.50;0.22;;;20.70;39.10;;;;;;5033291;28;20115;-52
2023/01/09 02:03:14;;;;;;;0.40;0.20;;;20.70;39.10;;;;;;5029787;28;20034;-51
2023/01/09 02:05:40;;;;;;;0.38;0.30;;;20.70;39.10;;;;;;5015344;28;20029;-51
2023/01/09 02:08:07;;;;;;;0.57;0.20;;;20.80;39.20;;;;;;5027578;28;20034;-54
2023/01/09 02:10:33;;;;;;;0.77;0.38;;;20.70;39.20;;;;;;5032998;28;20021;-54
2023/01/09 02:13:01;;;;;;;1.20;0.40;;;20.70;39.10;;;;;;5030042;28;20041;-56
2023/01/09 02:15:32;;;;;;;0.40;0.30;;;20.80;39.20;;;;;;5032953;28;20099;-54
2023/01/09 02:18:18;;;;;;;0.65;0.30;;;20.70;39.10;;;;;;5028065;28;20058;-56
2023/01/09 02:21:22;;;;;;;0.30;0.20;;;20.70;39.10;;;;;;5028942;28;20034;-53
2023/01/09 02:24:03;;;;;;;1.35;0.40;;;20.70;39.10;;;;;;5007752;28;20034;-51
2023/01/09 02:26:46;;;;;;;0.93;0.30;;;20.70;39.10;;;;;;5029902;28;20022;-52
2023/01/09 02:29:46;;;;;;;0.90;0.22;;;20.70;39.10;;;;;;5030639;28;20455;-54
2023/01/09 02:32:36;;;;;;;0.73;0.30;;;20.70;39.10;;;;;;5029725;28;20036;-50
2023/01/09 02:35:33;;;;;;;0.55;0.25;;;20.70;39.10;;;;;;5031543;28;20033;-55
2023/01/09 02:38:20;;;;;;;0.40;0.20;;;20.70;39.10;;;;;;5031542;28;20033;-53
2023/01/09 02:40:58;;;;;;;0.45;0.30;;;20.60;39.10;;;;;;5030206;28;20041;-49
2023/01/09 02:43:25;;;;;;;0.73;0.20;;;20.60;39.10;;;;;;5031379;28;20025;-56
2023/01/09 02:45:51;;;;;;;1.17;0.50;;;20.70;39.20;;;;;;5030727;28;20120;-52
2023/01/09 02:48:17;;;;;;;0.80;0.40;;;20.60;39.10;;;;;;5031644;28;20421;-50
2023/01/09 02:51:11;;;;;;;0.40;0.30;;;20.60;39.10;;;;;;5031704;28;20025;-54
2023/01/09 02:54:14;;;;;;;1.65;0.32;;;20.70;39.10;;;;;;5032026;28;20021;-57
2023/01/09 02:57:03;;;;;;;0.40;0.30;;;20.60;39.10;;;;;;5030737;28;20030;-58
2023/01/09 02:59:56;;;;;;;0.85;0.30;;;20.60;39.10;;;;;;5031155;28;20037;-58
2023/01/09 03:02:42;;;;;;;0.40;0.20;;;20.60;39.10;;;;;;5019529;28;20132;-55
2023/01/09 03:05:14;;;;;;;0.50;0.20;;;20.60;39.10;;;;;;5028945;28;20050;-50
2023/01/09 03:07:54;;;;;;;0.55;0.20;;;20.60;39.10;;;;;;5030716;28;20357;-52
2023/01/09 03:10:28;;;;;;;1.00;0.40;;;20.60;39.10;;;;;;5029755;28;20107;-55
2023/01/09 03:12:55;;;;;;;1.58;0.32;;;20.60;39.10;;;;;;5028762;28;20033;-57
2023/01/09 03:15:25;;;;;;;0.30;0.20;;;20.60;39.70;;;;;;5031064;28;20091;-56
2023/01/09 03:17:52;;;;;;;1.20;0.40;;;20.60;39.10;;;;;;5029515;28;20029;-55
2023/01/09 03:20:22;;;;;;;0.68;0.35;;;20.50;39.00;;;;;;5031536;28;20076;-57
2023/01/09 03:23:00;;;;;;;0.57;0.30;;;20.60;39.10;;;;;;5031591;28;20047;-56
2023/01/09 03:25:28;;;;;;;1.05;0.50;;;20.50;39.10;;;;;;5028153;28;20021;-55
2023/01/09 03:28:06;;;;;;;1.02;0.45;;;20.60;39.10;;;;;;5032180;28;20458;-54
2023/01/09 03:30:34;;;;;;;1.02;0.25;;;20.50;39.00;;;;;;5011325;28;20022;-56
2023/01/09 03:33:00;;;;;;;0.70;0.30;;;20.50;39.10;;;;;;5026558;28;20372;-52
2023/01/09 03:35:27;;;;;;;0.85;0.30;;;20.50;39.10;;;;;;5030629;28;20029;-54
2023/01/09 03:37:53;;;;;;;0.90;0.40;;;20.50;39.00;;;;;;5031338;28;20041;-55
2023/01/09 03:40:20;;;;;;;1.35;0.40;;;20.50;39.00;;;;;;5030755;28;20455;-55
2023/01/09 03:42:46;;;;;;;0.63;0.30;;;20.50;39.00;;;;;;5028218;28;20498;-54
2023/01/09 03:45:12;;;;;;;0.88;0.40;;;20.50;39.00;;;;;;5031076;28;20022;-53
2023/01/09 03:47:38;;;;;;;1.05;0.40;;;20.50;39.00;;;;;;5026374;28;20460;-57
2023/01/09 03:50:05;;;;;;;0.50;0.30;;;20.50;39.00;;;;;;5031133;28;20021;-55
2023/01/09 03:52:31;;;;;;;0.82;0.30;;;20.50;39.00;;;;;;5031285;28;20048;-53
2023/01/09 03:54:57;;;;;;;1.23;0.40;;;20.50;39.00;;;;;;5031447;28;20037;-53
2023/01/09 03:57:23;;;;;;;1.05;0.30;;;20.50;39.00;;;;;;5030583;28;20039;-56
2023/01/09 03:59:49;;;;;;;1.92;0.30;;;20.50;39.00;;;;;;5029316;28;20025;-56
2023/01/09 04:02:15;;;;;;;1.70;0.52;;;20.50;39.00;;;;;;5028282;28;20338;-55
2023/01/09 04:04:40;;;;;;;0.98;0.30;;;20.40;39.00;;;;;;5031247;28;20033;-54
2023/01/09 04:07:06;;;;;;;0.45;0.32;;;20.50;39.00;;;;;;5029392;28;20043;-55
2023/01/09 04:09:32;;;;;;;0.75;0.30;;;20.50;39.00;;;;;;5033373;28;20404;-54
2023/01/09 04:11:58;;;;;;;1.15;0.40;;;20.50;39.00;;;;;;5009411;28;20040;-55
2023/01/09 04:14:24;;;;;;;0.60;0.38;;;20.50;39.00;;;;;;5030605;28;20100;-54
2023/01/09 04:16:49;;;;;;;1.15;0.50;;;20.50;39.00;;;;;;5030911;28;20345;-52
2023/01/09 04:19:15;;;;;;;0.80;0.20;;;20.40;38.90;;;;;;5028059;28;20025;-54
2023/01/09 04:21:41;;;;;;;1.55;0.40;;;20.40;39.00;;;;;;5028347;28;20077;-51
2023/01/09 04:24:07;;;;;;;0.88;0.40;;;20.40;38.90;;;;;;5028872;28;20064;-52
2023/01/09 04:26:33;;;;;;;1.23;0.40;;;20.40;39.00;;;;;;5030597;28;20056;-54
2023/01/09 04:28:59;;;;;;;0.82;0.40;;;20.40;39.00;;;;;;5030473;28;20025;-56
2023/01/09 04:31:25;;;;;;;1.00;0.30;;;20.40;39.00;;;;;;5026810;28;20025;-54
2023/01/09 04:33:51;;;;;;;1.33;0.38;;;20.40;39.00;;;;;;5025889;28;20104;-51
2023/01/09 04:36:17;;;;;;;0.82;0.50;;;20.40;39.00;;;;;;5029755;28;20029;-55
2023/01/09 04:38:43;;;;;;;0.88;0.40;;;20.40;39.00;;;;;;5029386;28;20017;-57
2023/01/09 04:41:08;;;;;;;1.35;0.40;;;20.40;39.00;;;;;;5027564;28;20345;-53
2023/01/09 04:43:34;;;;;;;1.85;0.57;;;20.40;39.00;;;;;;5030040;28;20033;-56
2023/01/09 04:46:01;;;;;;;1.45;0.50;;;20.40;39.00;;;;;;5030173;28;20025;-55
2023/01/09 04:48:27;;;;;;;1.73;0.50;;;20.40;39.00;;;;;;5028974;28;20041;-53
2023/01/09 04:50:53;;;;;;;0.93;0.50;;;20.40;39.00;;;;;;5025537;28;20583;-51
2023/01/09 04:53:18;;;;;;;1.25;0.40;;;20.30;38.90;;;;;;5029640;28;20086;-56
2023/01/09 04:55:45;;;;;;;1.65;0.70;;;20.40;39.00;;;;;;5021185;28;20071;-52
2023/01/09 04:58:10;;;;;;;1.15;0.60;;;20.30;39.50;;;;;;5017531;28;20026;-54
2023/01/09 05:00:36;;;;;;;0.80;0.40;;;20.30;38.90;;;;;;5027482;28;20036;-57
2023/01/09 05:03:02;;;;;;;1.10;0.43;;;20.30;38.90;;;;;;5027807;28;20472;-53
2023/01/09 05:05:29;;;;;;;0.55;0.40;;;20.30;38.90;;;;;;5010575;28;20033;-56
2023/01/09 05:07:54;;;;;;;1.45;0.45;;;20.30;39.00;;;;;;5025669;28;20073;-51
2023/01/09 05:10:20;;;;;;;0.88;0.35;;;20.30;38.90;;;;;;5028738;28;20037;-55
2023/01/09 05:12:46;;;;;;;1.23;0.57;;;20.30;38.90;;;;;;5030157;28;20033;-54
2023/01/09 05:15:12;;;;;;;1.60;0.40;;;20.30;38.90;;;;;;5026395;28;20059;-57
2023/01/09 05:17:38;;;;;;;1.48;0.47;;;20.30;38.90;;;;;;5028770;28;20360;-52
2023/01/09 05:20:04;;;;;;;0.50;0.30;;;20.30;38.90;;;;;;5025183;28;20022;-55
2023/01/09 05:22:30;;;;;;;1.08;0.40;;;20.30;38.90;;;;;;5027922;28;20029;-55
2023/01/09 05:24:56;;;;;;;0.98;0.40;;;20.30;39.60;;;;;;5029261;28;20056;-52
2023/01/09 05:27:21;;;;;;;0.93;0.50;;;20.30;39.00;;;;;;5030832;28;20416;-53
2023/01/09 05:29:47;;;;;;;1.17;0.45;;;20.30;39.00;;;;;;5029796;28;20164;-53
2023/01/09 05:32:13;;;;;;;1.20;0.50;;;20.30;39.00;;;;;;5026068;28;20419;-54
2023/01/09 05:34:39;;;;;;;0.90;0.40;;;20.30;39.10;;;;;;5029200;28;20080;-53
2023/01/09 05:37:05;;;;;;;0.65;0.30;;;20.30;39.00;;;;;;5029363;28;20132;-52
2023/01/09 05:39:31;;;;;;;1.05;0.40;;;20.20;39.00;;;;;;5030392;28;20025;-52
2023/01/09 05:41:56;;;;;;;2.28;0.43;;;20.20;39.00;;;;;;5025580;28;20041;-57
2023/01/09 05:44:22;;;;;;;1.55;0.50;;;20.20;39.60;;;;;;5028154;28;20927;-55
2023/01/09 05:46:48;;;;;;;0.85;0.50;;;20.20;39.00;;;;;;5027525;28;20029;-54
2023/01/09 05:49:14;;;;;;;1.42;0.50;;;20.20;39.00;;;;;;5031095;28;20033;-53
2023/01/09 05:51:40;;;;;;;1.23;0.40;;;20.20;39.00;;;;;;5027481;28;20049;-53
2023/01/09 05:54:06;;;;;;;0.73;0.38;;;20.20;39.00;;;;;;5032482;28;20381;-56
2023/01/09 05:56:32;;;;;;;0.77;0.45;;;20.20;39.00;;;;;;5030888;28;20029;-51
2023/01/09 05:58:58;;;;;;;0.65;0.40;;;20.20;39.00;;;;;;5027258;28;20100;-54
2023/01/09 06:01:23;;;;;;;0.85;0.30;;;20.20;39.00;;;;;;5030936;28;20033;-52
2023/01/09 06:03:49;;;;;;;0.95;0.50;;;20.20;38.90;;;;;;5025515;28;20515;-53
2023/01/09 06:06:15;;;;;;;1.60;0.50;;;20.20;39.00;;;;;;5032043;28;20091;-53
2023/01/09 06:08:41;;;;;;;1.38;0.60;;;20.20;39.00;;;;;;5024883;28;20413;-52
2023/01/09 06:11:07;;;;;;;1.63;0.52;;;20.20;39.00;;;;;;5037000;28;20033;-54
2023/01/09 06:13:32;;;;;;;1.25;0.57;;;20.20;39.00;;;;;;5032396;28;20029;-52
2023/01/09 06:15:58;;;;;;;1.10;0.50;;;20.20;39.00;;;;;;5036850;28;20472;-52
2023/01/09 06:18:24;;;;;;;1.23;0.45;;;20.20;39.00;;;;;;5030545;28;20025;-51
2023/01/09 06:20:50;;;;;;;1.02;0.50;;;20.20;39.00;;;;;;5026397;28;20544;-55
2023/01/09 06:23:16;;;;;;;0.63;0.32;;;20.20;39.00;;;;;;5013196;28;20087;-55
2023/01/09 06:25:41;;;;;;;1.95;0.70;;;20.10;39.00;;;;;;5027143;28;20021;-54
2023/01/09 06:28:07;;;;;;;0.90;0.30;;;20.10;39.00;;;;;;5033012;28;20032;-55
2023/01/09 06:30:33;;;;;;;0.77;0.40;;;20.10;39.00;;;;;;5029490;28;20033;-54
2023/01/09 06:32:59;;;;;;;1.63;0.60;;;20.10;39.00;;;;;;5032317;28;20029;-56
2023/01/09 06:35:25;;;;;;;1.85;0.65;;;20.10;39.00;;;;;;5033600;28;20360;-55
2023/01/09 06:37:50;;;;;;;1.63;0.45;;;20.10;39.00;;;;;;5029227;28;20084;-56
2023/01/09 06:40:17;;;;;;;1.73;0.60;;;20.10;39.10;;;;;;5012338;28;20027;-55
2023/01/09 06:42:44;;;;;;;0.95;0.30;;;20.10;39.00;;;;;;5027560;28;20112;-57
2023/01/09 06:45:10;;;;;;;1.13;0.43;;;20.10;39.10;;;;;;5042111;28;20060;-54
2023/01/09 06:47:36;;;;;;;2.25;0.50;;;20.10;39.10;;;;;;5031917;28;20040;-56
2023/01/09 06:50:02;;;;;;;1.85;0.50;;;20.10;39.10;;;;;;5030260;28;20025;-55
2023/01/09 06:52:28;;;;;;;0.98;0.40;;;20.10;39.10;;;;;;5026832;28;20437;-54
2023/01/09 06:54:53;;;;;;;1.23;0.52;;;20.10;39.10;;;;;;5035029;28;20022;-55
2023/01/09 06:57:19;;;;;;;1.35;0.60;;;20.10;39.10;;;;;;5029628;28;20053;-52
2023/01/09 06:59:45;;;;;;;2.15;0.80;;;20.10;39.10;;;;;;5025970;28;20121;-56
2023/01/09 07:02:18;;;;;;;1.20;0.43;;;20.10;39.20;;;;;;5031863;28;20065;-54
2023/01/09 07:04:44;;;;;;;1.27;0.60;;;20.10;39.20;;;;;;5034797;28;20072;-58
2023/01/09 07:07:10;;;;;;;2.10;0.80;;;20.10;39.20;;;;;;5030601;28;20321;-56
2023/01/09 07:09:35;;;;;;;2.35;0.70;;;20.00;39.20;;;;;;5025973;28;20022;-55
2023/01/09 07:12:01;;;;;;;1.17;0.55;;;20.10;39.30;;;;;;5030511;28;20495;-53
2023/01/09 07:14:27;;;;;;;1.73;0.88;;;20.00;39.30;;;;;;5024213;28;20177;-55
2023/01/09 07:16:53;;;;;;;1.83;0.65;;;20.00;39.20;;;;;;5030927;28;20026;-56
2023/01/09 07:19:19;;;;;;;4.18;1.05;;;20.00;39.30;;;;;;5026448;28;20457;-49
2023/01/09 07:21:44;;;;;;;2.40;0.77;;;20.00;39.30;;;;;;5032043;28;20039;-52
2023/01/09 07:24:11;;;;;;;1.15;0.43;;;20.00;39.30;;;;;;5014870;28;20060;-55
2023/01/09 07:26:37;;;;;;;2.53;0.63;;;20.00;39.40;;;;;;5030016;28;20029;-51
2023/01/09 07:29:03;;;;;;;1.83;0.52;;;20.00;39.40;;;;;;5028491;28;20025;-55
2023/01/09 07:31:29;;;;;;;1.65;0.50;;;20.00;39.40;;;;;;5017427;28;20049;-51
2023/01/09 07:33:55;;;;;;;1.58;0.50;;;20.00;39.50;;;;;;5016373;28;20045;-54
2023/01/09 07:36:21;;;;;;;1.00;0.43;;;20.00;39.50;;;;;;5015611;28;20030;-52
2023/01/09 07:38:46;;;;;;;2.45;0.70;;;20.00;39.50;;;;;;5014727;28;20434;-50
2023/01/09 07:41:12;;;;;;;2.60;0.85;;;20.00;39.50;;;;;;4999908;28;20033;-55
2023/01/09 07:43:38;;;;;;;2.60;0.80;;;20.00;39.60;;;;;;5016878;28;20491;-55
2023/01/09 07:46:05;;;;;;;2.63;0.70;;;20.00;39.60;;;;;;5014257;28;20073;-54
2023/01/09 07:48:31;;;;;;;1.33;0.50;;;20.00;39.70;;;;;;5016152;28;20132;-47
2023/01/09 07:50:57;;;;;;;1.52;0.63;;;20.00;39.70;;;;;;5019245;28;20029;-56
2023/01/09 07:53:23;;;;;;;1.80;0.70;;;20.00;39.80;;;;;;5017425;28;20026;-56
2023/01/09 07:55:49;;;;;;;2.40;0.70;;;20.00;39.80;;;;;;5024888;28;20084;-53
2023/01/09 07:58:15;;;;;;;2.13;0.65;;;20.00;39.90;;;;;;5018029;28;20026;-53
2023/01/09 08:00:41;;;;;;;1.30;0.60;;;20.00;39.90;;;;;;5017578;28;20655;-54
2023/01/09 08:03:07;;;;;;;3.10;0.80;;;20.00;40.00;;;;;;5020435;28;20433;-55
2023/01/09 08:05:33;;;;;;;1.95;0.70;;;20.10;40.10;;;;;;5018800;28;20030;-51
2023/01/09 08:07:58;;;;;;;1.40;0.60;;;20.10;40.20;;;;;;5034293;28;20037;-55
2023/01/09 08:10:24;;;;;;;2.38;0.55;;;20.10;40.30;;;;;;5034722;28;20022;-55
2023/01/09 08:12:50;;;;;;;1.42;0.57;;;20.10;40.40;;;;;;5048709;28;20052;-53
2023/01/09 08:15:16;;;;;;;1.92;0.70;;;20.20;41.10;;;;;;5021405;28;20045;-52
2023/01/09 08:17:44;;;;;;;1.60;0.50;;;20.30;40.60;;;;;;5027188;28;20025;-56
2023/01/09 08:20:11;;;;;;;1.50;0.80;;;20.30;40.60;;;;;;5013848;28;20029;-52
2023/01/09 08:22:40;;;;;;;1.70;0.70;;;20.40;40.70;;;;;;5001037;28;20405;-53
2023/01/09 08:25:06;;;;;;;1.33;0.80;;;20.40;40.60;;;;;;5012852;28;20449;-53
2023/01/09 08:27:32;;;;;;;1.83;0.60;;;20.50;40.60;;;;;;5031519;28;20026;-55
2023/01/09 08:29:58;;;;;;;1.15;0.45;;;20.50;40.60;;;;;;5039928;28;20116;-57
2023/01/09 08:32:24;;;;;;;1.63;0.60;;;20.60;40.60;;;;;;5029258;28;20029;-53
2023/01/09 08:34:51;;;;;;;1.10;0.50;;;20.60;41.10;;;;;;5033635;28;20026;-52
2023/01/09 08:37:16;;;;;;;1.10;0.50;;;20.70;40.50;;;;;;5033767;28;20094;-52
2023/01/09 08:39:42;;;;;;;0.88;0.43;;;20.70;40.40;;;;;;5028816;28;20344;-54
2023/01/09 08:47:38;;;;;;;1.17;0.45;;;20.90;40.20;;;;;;5017568;28;20042;-54
2023/01/09 08:50:04;;;;;;;1.30;0.47;;;21.00;40.20;;;;;;5014220;28;20025;-53
2023/01/09 08:52:30;;;;;;;1.20;0.50;;;21.00;40.20;;;;;;4996637;28;20033;-58
2023/01/09 08:54:56;;;;;;;3.58;0.82;;;21.10;40.10;;;;;;5012921;28;20037;-53
2023/01/09 08:57:22;;;;;;;2.25;0.75;;;21.20;40.00;;;;;;5021998;28;20033;-53
2023/01/09 08:59:48;;;;;;;1.35;0.68;;;21.20;39.90;;;;;;5012378;28;20434;-52
2023/01/09 09:02:13;;;;;;;2.60;0.57;;;21.20;39.80;;;;;;5013448;28;20401;-57
2023/01/09 09:04:40;;;;;;;0.85;0.40;;;21.30;39.80;;;;;;5016814;28;20041;-56
2023/01/09 09:07:05;;;;;;;1.30;0.52;;;21.40;39.70;;;;;;5021666;28;20033;-55
2023/01/09 09:09:31;;;;;;;5.18;0.70;;;21.40;39.60;;;;;;5015458;28;20030;-56
2023/01/09 09:11:57;;;;;;;1.73;0.70;;;21.50;39.60;;;;;;5016045;28;20061;-55
2023/01/09 09:17:07;;;;;;;1.02;0.30;;;21.60;39.40;;;;;;5024311;28;22244;-55
2023/01/09 09:19:34;;;;;;;1.77;0.52;;;21.60;39.30;;;;;;5027892;28;20041;-54
2023/01/09 09:22:00;;;;;;;1.58;0.68;;;21.70;39.30;;;;;;5025995;28;20436;-57
2023/01/09 09:24:26;;;;;;;1.15;0.45;;;21.70;39.20;;;;;;5030996;28;20132;-56
2023/01/09 09:26:51;;;;;;;1.13;0.50;;;21.80;39.10;;;;;;5035808;28;20026;-54
2023/01/09 09:29:17;;;;;;;3.97;0.60;;;21.80;39.00;;;;;;5029134;28;20973;-56
2023/01/09 09:31:43;;;;;;;1.55;0.60;;;21.80;39.00;;;;;;5030388;28;20163;-53
2023/01/09 09:34:09;;;;;;;2.05;0.40;;;21.80;39.00;;;;;;5035659;28;20021;-55
2023/01/09 09:36:35;;;;;;;1.10;0.43;;;21.90;39.00;;;;;;5036734;28;20025;-56
2023/01/09 09:39:07;;;;;;;1.05;0.40;;;21.90;38.90;;;;;;5035941;28;20045;-52
2023/01/09 09:44:58;;;;;;;0.75;0.40;;;22.00;38.80;;;;;;5035049;28;20025;-52
2023/01/09 09:48:01;;;;;;;1.42;0.50;;;22.00;38.70;;;;;;5031804;28;20033;-53
2023/01/09 09:50:35;;;;;;;0.82;0.50;;;22.00;38.60;;;;;;5034551;28;20029;-55
2023/01/09 09:53:33;;;;;;;2.42;0.40;;;22.00;38.50;;;;;;5035944;28;20039;-55
2023/01/09 09:55:59;;;;;;;0.77;0.40;;;22.10;38.50;;;;;;5036293;28;20042;-57
2023/01/09 09:58:46;;;;;;;1.25;0.50;;;22.10;39.00;;;;;;5036450;28;20112;-56
2023/01/09 10:01:18;;;;;;;0.90;0.50;;;22.10;38.40;;;;;;5035020;28;20045;-57
2023/01/09 10:03:50;;;;;;;1.27;0.50;;;22.10;38.30;;;;;;5033513;28;20163;-54
2023/01/09 10:06:30;;;;;;;1.20;0.55;;;22.10;38.30;;;;;;5034617;28;20188;-57
2023/01/09 10:09:08;;;;;;;1.95;0.60;;;22.20;38.30;;;;;;5033493;28;20496;-53
2023/01/09 10:12:12;;;;;;;1.08;0.40;;;22.20;38.20;;;;;;5036120;28;20025;-51
2023/01/09 10:14:38;;;;;;;0.77;0.40;;;22.20;38.10;;;;;;5035707;28;20041;-52
2023/01/09 10:17:23;;;;;;;0.95;0.43;;;22.20;38.20;;;;;;5035223;28;20051;-55
2023/01/09 10:20:10;;;;;;;1.63;0.50;;;22.20;38.10;;;;;;5035574;28;20030;-57
2023/01/09 10:22:45;;;;;;;1.17;0.40;;;22.20;38.10;;;;;;5035361;28;20449;-52
2023/01/09 10:25:20;;;;;;;1.42;0.50;;;22.20;38.10;;;;;;5016938;28;20029;-53
2023/01/09 10:28:11;;;;;;;1.15;0.57;;;22.20;38.10;;;;;;5035772;28;20061;-55
2023/01/09 10:30:57;;;;;;;0.73;0.40;;;22.20;38.10;;;;;;5018411;28;20033;-53
2023/01/09 10:33:44;;;;;;;1.20;0.50;;;22.20;38.10;;;;;;5017547;28;20677;-56
2023/01/09 10:36:23;;;;;;;2.28;0.70;;;22.30;38.10;;;;;;5034456;28;20099;-56
2023/01/09 10:38:52;;;;;;;1.58;0.60;;;22.30;38.10;;;;;;5035136;28;20033;-54
2023/01/09 10:41:26;;;;;;;1.20;0.47;;;22.30;38.10;;;;;;5033916;28;20484;-53
2023/01/09 10:44:06;;;;;;;0.98;0.50;;;22.30;38.10;;;;;;5035658;28;20041;-55
2023/01/09 10:46:42;;;;;;;1.23;0.68;;;22.30;38.10;;;;;;5033861;28;20121;-52
2023/01/09 10:49:16;;;;;;;1.48;0.63;;;22.30;38.00;;;;;;5035354;28;20112;-57
2023/01/09 10:52:21;;;;;;;1.63;0.60;;;22.30;38.00;;;;;;5034354;28;20155;-54
2023/01/09 10:55:18;;;;;;;1.02;0.52;;;22.30;38.00;;;;;;5028794;28;20049;-52
2023/01/09 10:58:01;;;;;;;2.30;0.40;;;22.30;37.90;;;;;;5019131;28;20089;-54
2023/01/09 11:00:27;;;;;;;1.95;0.52;;;22.30;37.90;;;;;;5035363;28;20100;-53
2023/01/09 11:02:53;;;;;;;1.42;0.50;;;22.30;37.80;;;;;;4983872;28;20133;-56
2023/01/09 11:05:28;;;;;;;0.98;0.50;;;22.40;37.90;;;;;;4985287;28;20042;-52
2023/01/09 11:08:03;;;;;;;1.77;0.60;;;22.40;37.80;;;;;;4977613;28;20125;-55
2023/01/09 11:10:50;;;;;;;0.88;0.50;;;22.30;37.70;;;;;;4982683;28;20030;-57
2023/01/09 11:13:31;;;;;;;1.00;0.30;;;22.40;37.70;;;;;;4980725;28;20457;-56
2023/01/09 11:16:08;;;;;;;0.40;0.35;;;22.40;37.70;;;;;;4984001;28;20101;-55
2023/01/09 11:18:38;;;;;;;1.55;0.60;;;22.40;37.70;;;;;;4981624;28;20053;-57
2023/01/09 11:21:26;;;;;;;1.27;0.45;;;22.40;37.70;;;;;;4982330;28;20042;-58
2023/01/09 11:23:53;;;;;;;1.33;0.40;;;22.40;37.70;;;;;;4984082;28;20502;-53
2023/01/09 11:26:27;;;;;;;1.55;0.52;;;22.40;37.80;;;;;;4982295;28;20044;-55
2023/01/09 11:29:10;;;;;;;1.17;0.35;;;22.40;37.80;;;;;;4991835;28;20133;-55
2023/01/09 11:31:36;;;;;;;0.60;0.30;;;22.40;37.80;;;;;;4983411;28;20033;-57
2023/01/09 11:34:03;;;;;;;1.27;0.43;;;22.40;37.80;;;;;;5013476;28;20041;-50
2023/01/09 11:36:29;;;;;;;1.05;0.40;;;22.50;37.80;;;;;;5034660;28;20029;-57
2023/01/09 11:39:01;;;;;;;1.25;0.50;;;22.40;37.70;;;;;;5034664;28;20021;-54
2023/01/09 11:41:33;;;;;;;2.22;0.70;;;22.40;37.70;;;;;;5014185;28;20412;-54
2023/01/09 11:44:01;;;;;;;1.63;0.43;;;22.40;37.70;;;;;;5019265;28;20029;-55
2023/01/09 11:46:39;;;;;;;1.60;0.60;;;22.40;37.70;;;;;;5034674;28;20032;-52
2023/01/09 11:49:24;;;;;;;1.33;0.50;;;22.40;37.70;;;;;;5031695;28;20048;-54
2023/01/09 11:52:23;;;;;;;1.35;0.50;;;22.40;37.70;;;;;;5037400;28;20035;-57
2023/01/09 11:55:08;;;;;;;0.93;0.40;;;22.40;37.70;;;;;;4983151;28;20374;-55
2023/01/09 11:57:34;;;;;;;0.80;0.43;;;22.40;37.70;;;;;;5038045;28;20033;-59
2023/01/09 12:00:05;;;;;;;0.98;0.52;;;22.40;37.80;;;;;;5036005;28;20094;-53
2023/01/09 12:02:51;;;;;;;1.63;0.38;;;22.40;37.80;;;;;;5030972;28;20465;-51
2023/01/09 12:05:30;;;;;;;1.42;0.50;;;22.40;37.80;;;;;;5042074;28;20087;-57
2023/01/09 12:08:38;;;;;;;1.13;0.63;;;22.40;37.80;;;;;;5053972;28;20028;-54
2023/01/09 12:11:35;;;;;;;1.48;0.68;;;22.40;37.80;;;;;;5021563;28;20030;-55
2023/01/09 12:14:24;;;;;;;1.35;0.50;;;22.30;37.70;;;;;;5015339;28;20111;-56
2023/01/09 12:17:09;;;;;;;1.00;0.38;;;22.30;37.70;;;;;;5018697;28;20037;-56
2023/01/09 12:20:13;;;;;;;1.10;0.60;;;22.30;37.70;;;;;;5014326;28;20117;-52
2023/01/09 12:22:52;;;;;;;1.52;0.57;;;22.30;38.40;;;;;;5021131;28;20041;-54
2023/01/09 12:25:37;;;;;;;1.52;0.47;;;22.30;37.80;;;;;;5026892;28;20037;-55
2023/01/09 12:28:09;;;;;;;2.42;0.30;;;22.30;37.80;;;;;;5033582;28;20408;-55
2023/01/09 12:30:52;;;;;;;1.25;0.70;;;22.30;37.90;;;;;;5013455;28;20449;-54
2023/01/09 12:33:47;;;;;;;1.35;0.50;;;22.30;38.00;;;;;;5037744;28;20044;-54
2023/01/09 12:36:21;;;;;;;2.50;0.80;;;22.30;38.00;;;;;;5032431;28;20711;-57
2023/01/09 12:38:53;;;;;;;2.85;0.80;;;22.30;38.10;;;;;;5017193;28;20044;-51
2023/01/09 12:41:41;;;;;;;2.25;0.60;;;22.30;38.10;;;;;;5032909;28;20108;-55
2023/01/09 12:45:01;;;;;;;1.58;0.60;;;22.30;38.10;;;;;;5031490;28;20053;-57
2023/01/09 12:47:41;;;;;;;1.77;0.68;;;22.30;38.10;;;;;;4953859;28;20407;-54
2023/01/09 12:50:46;;;;;;;2.55;0.70;;;22.20;38.10;;;;;;5021375;28;20038;-55
2023/01/09 12:53:27;;;;;;;2.10;0.90;;;22.20;38.10;;;;;;4999449;28;20130;-55
2023/01/09 12:56:18;;;;;;;1.88;0.80;;;22.20;38.10;;;;;;5025187;28;20034;-52
2023/01/09 12:58:48;;;;;;;2.35;0.70;;;22.20;38.10;;;;;;5014054;28;20034;-51
2023/01/09 13:01:18;;;;;;;2.05;0.80;;;22.20;38.10;;;;;;5025481;28;20483;-53
2023/01/09 13:03:55;;;;;;;1.60;0.60;;;22.20;38.20;;;;;;5033307;28;20026;-53
2023/01/09 13:06:23;;;;;;;1.30;0.70;;;22.10;38.10;;;;;;5013743;28;20524;-53
2023/01/09 13:09:00;;;;;;;2.58;0.80;;;22.20;38.20;;;;;;5032670;28;20364;-56
2023/01/09 13:11:37;;;;;;;1.40;0.50;;;22.10;38.20;;;;;;5033584;28;20055;-53
2023/01/09 13:14:16;;;;;;;2.60;0.55;;;22.10;38.30;;;;;;5014709;28;20041;-54
2023/01/09 13:16:46;;;;;;;2.13;0.73;;;22.10;38.30;;;;;;5028883;28;20377;-56
2023/01/09 13:19:27;;;;;;;2.53;0.80;;;22.00;38.30;;;;;;5032903;28;20035;-55
2023/01/09 13:21:54;;;;;;;2.08;0.68;;;22.10;38.40;;;;;;5022475;28;20044;-55
2023/01/09 13:24:26;;;;;;;2.00;0.88;;;22.10;38.40;;;;;;5033025;28;20334;-56